sensor_id;sensor_type;location;lat;lon;timestamp;temperature;humidity
67273;DHT22;54190;49.770;9.250;2022-12-29T08:56:15;11.30;99.90
67273;DHT22;54190;49.770;9.250;2022-12-29T08:58:51;11.30;99.90
67273;DHT22;54190;49.770;9.250;2022-12-29T09:01:18;11.30;99.90
67273;DHT22;54190;49.770;9.250;2022-12-29T09:03:44;11.40;99.90
67273;DHT22;54190;49.770;9.250;2022-12-29T09:06:11;11.40;99.90
67273;DHT22;54190;49.770;9.250;2022-12-29T09:08:37;11.40;99.90
67273;DHT22;54190;49.770;9.250;2022-12-29T09:11:11;11.50;99.90
67273;DHT22;54190;49.770;9.250;2022-12-29T09:13:38;11.50;99.90
67273;DHT22;54190;49.770;9.250;2022-12-29T09:16:07;11.50;99.90
67273;DHT22;54190;49.770;9.250;2022-12-29T09:18:37;11.60;99.90
67273;DHT22;54190;49.770;9.250;2022-12-29T09:21:10;11.60;99.90
67273;DHT22;54190;49.770;9.250;2022-12-29T09:23:37;11.60;99.90
67273;DHT22;54190;49.770;9.250;2022-12-29T09:26:03;11.50;99.90
67273;DHT22;54190;49.770;9.250;2022-12-29T09:28:30;11.50;99.90
67273;DHT22;54190;49.770;9.250;2022-12-29T09:31:00;11.40;99.90
67273;DHT22;54190;49.770;9.250;2022-12-29T09:33:26;11.40;99.90
67273;DHT22;54190;49.770;9.250;2022-12-29T09:35:54;11.40;99.90
67273;DHT22;54190;49.770;9.250;2022-12-29T09:38:20;11.40;99.90
67273;DHT22;54190;49.770;9.250;2022-12-29T09:40:51;11.50;99.90
67273;DHT22;54190;49.770;9.250;2022-12-29T09:46:10;11.50;99.90
67273;DHT22;54190;49.770;9.250;2022-12-29T09:48:44;11.50;99.90
67273;DHT22;54190;49.770;9.250;2022-12-29T09:51:15;11.50;99.90
67273;DHT22;54190;49.770;9.250;2022-12-29T09:54:04;11.50;99.90
67273;DHT22;54190;49.770;9.250;2022-12-29T09:56:40;11.50;99.90
67273;DHT22;54190;49.770;9.250;2022-12-29T09:59:12;11.60;99.90
67273;DHT22;54190;49.770;9.250;2022-12-29T10:02:27;11.60;99.90
67273;DHT22;54190;49.770;9.250;2022-12-29T10:04:49;11.60;99.90
67273;DHT22;54190;49.770;9.250;2022-12-29T10:07:40;11.60;99.90
67273;DHT22;54190;49.770;9.250;2022-12-29T10:10:26;11.70;99.90
67273;DHT22;54190;49.770;9.250;2022-12-29T10:23:46;11.60;99.90
67273;DHT22;54190;49.770;9.250;2022-12-29T10:26:17;11.60;99.90
67273;DHT22;54190;49.770;9.250;2022-12-29T10:28:51;11.60;99.90
67273;DHT22;54190;49.770;9.250;2022-12-29T10:32:05;11.60;99.90
67273;DHT22;54190;49.770;9.250;2022-12-29T10:34:37;11.50;99.90
67273;DHT22;54190;49.770;9.250;2022-12-29T10:37:11;11.50;99.90
67273;DHT22;54190;49.770;9.250;2022-12-29T10:39:52;11.60;99.90
67273;DHT22;54190;49.770;9.250;2022-12-29T10:42:36;11.70;99.90
67273;DHT22;54190;49.770;9.250;2022-12-29T10:45:04;11.70;99.90
67273;DHT22;54190;49.770;9.250;2022-12-29T10:47:35;11.70;99.90
67273;DHT22;54190;49.770;9.250;2022-12-29T10:50:03;11.70;99.90
67273;DHT22;54190;49.770;9.250;2022-12-29T10:52:30;11.70;99.90
67273;DHT22;54190;49.770;9.250;2022-12-29T10:55:04;11.60;99.90
67273;DHT22;54190;49.770;9.250;2022-12-29T10:57:40;11.60;99.90
67273;DHT22;54190;49.770;9.250;2022-12-29T11:00:17;11.60;99.90
67273;DHT22;54190;49.770;9.250;2022-12-29T11:08:14;11.70;99.90
67273;DHT22;54190;49.770;9.250;2022-12-29T11:10:46;11.70;99.90
67273;DHT22;54190;49.770;9.250;2022-12-29T11:13:25;11.70;99.90
67273;DHT22;54190;49.770;9.250;2022-12-29T11:15:52;11.70;99.90
67273;DHT22;54190;49.770;9.250;2022-12-29T11:20:58;11.80;99.90
67273;DHT22;54190;49.770;9.250;2022-12-29T11:26:17;11.90;99.90
67273;DHT22;54190;49.770;9.250;2022-12-29T11:29:21;11.90;99.90
67273;DHT22;54190;49.770;9.250;2022-12-29T11:31:52;11.90;99.90
67273;DHT22;54190;49.770;9.250;2022-12-29T11:36:47;12.00;99.90
67273;DHT22;54190;49.770;9.250;2022-12-29T11:39:32;11.90;99.90
67273;DHT22;54190;49.770;9.250;2022-12-29T11:41:59;11.90;99.90
67273;DHT22;54190;49.770;9.250;2022-12-29T11:44:26;11.90;99.90
67273;DHT22;54190;49.770;9.250;2022-12-29T11:46:53;12.00;99.90
67273;DHT22;54190;49.770;9.250;2022-12-29T11:49:24;12.00;99.90
67273;DHT22;54190;49.770;9.250;2022-12-29T11:51:51;12.00;99.90
67273;DHT22;54190;49.770;9.250;2022-12-29T11:54:30;12.00;99.90
67273;DHT22;54190;49.770;9.250;2022-12-29T11:56:57;12.00;99.90
67273;DHT22;54190;49.770;9.250;2022-12-29T11:59:37;12.10;99.90
67273;DHT22;54190;49.770;9.250;2022-12-29T12:02:30;12.00;99.90
67273;DHT22;54190;49.770;9.250;2022-12-29T12:05:04;12.00;99.90
67273;DHT22;54190;49.770;9.250;2022-12-29T12:07:44;12.00;99.90
67273;DHT22;54190;49.770;9.250;2022-12-29T12:10:25;11.90;99.90
67273;DHT22;54190;49.770;9.250;2022-12-29T12:13:08;11.90;99.90
67273;DHT22;54190;49.770;9.250;2022-12-29T12:15:46;11.70;99.90
67273;DHT22;54190;49.770;9.250;2022-12-29T12:21:27;11.20;99.90
67273;DHT22;54190;49.770;9.250;2022-12-29T12:24:15;11.10;99.90
67273;DHT22;54190;49.770;9.250;2022-12-29T12:27:20;11.10;99.90
67273;DHT22;54190;49.770;9.250;2022-12-29T12:30:16;11.10;99.90
67273;DHT22;54190;49.770;9.250;2022-12-29T12:33:06;11.20;99.90
67273;DHT22;54190;49.770;9.250;2022-12-29T12:36:04;11.30;99.90
67273;DHT22;54190;49.770;9.250;2022-12-29T12:38:38;11.40;99.90
67273;DHT22;54190;49.770;9.250;2022-12-29T12:44:05;11.40;99.90
67273;DHT22;54190;49.770;9.250;2022-12-29T12:47:39;11.40;99.90
67273;DHT22;54190;49.770;9.250;2022-12-29T12:58:31;11.10;99.90
67273;DHT22;54190;49.770;9.250;2022-12-29T13:07:04;11.00;99.90
67273;DHT22;54190;49.770;9.250;2022-12-29T13:12:40;11.10;99.90
67273;DHT22;54190;49.770;9.250;2022-12-29T13:18:16;11.10;99.90
67273;DHT22;54190;49.770;9.250;2022-12-29T13:20:54;11.10;99.90
67273;DHT22;54190;49.770;9.250;2022-12-29T13:23:37;11.10;99.90
67273;DHT22;54190;49.770;9.250;2022-12-29T13:26:25;11.00;99.90
67273;DHT22;54190;49.770;9.250;2022-12-29T13:31:30;11.10;99.90
67273;DHT22;54190;49.770;9.250;2022-12-29T13:34:33;11.10;99.90
67273;DHT22;54190;49.770;9.250;2022-12-29T13:37:13;11.20;99.90
67273;DHT22;54190;49.770;9.250;2022-12-29T13:40:10;11.30;99.90
67273;DHT22;54190;49.770;9.250;2022-12-29T13:42:34;11.40;99.90
67273;DHT22;54190;49.770;9.250;2022-12-29T13:45:07;11.40;99.90
67273;DHT22;54190;49.770;9.250;2022-12-29T13:48:11;11.40;99.90
67273;DHT22;54190;49.770;9.250;2022-12-29T13:50:41;11.40;99.90
67273;DHT22;54190;49.770;9.250;2022-12-29T13:53:15;11.40;99.90
67273;DHT22;54190;49.770;9.250;2022-12-29T13:55:51;11.40;99.90
67273;DHT22;54190;49.770;9.250;2022-12-29T14:08:41;11.20;99.90
67273;DHT22;54190;49.770;9.250;2022-12-29T14:11:13;11.20;99.90
67273;DHT22;54190;49.770;9.250;2022-12-29T14:13:42;11.20;99.90
67273;DHT22;54190;49.770;9.250;2022-12-29T14:16:28;11.10;99.90
67273;DHT22;54190;49.770;9.250;2022-12-29T14:18:56;11.10;99.90
67273;DHT22;54190;49.770;9.250;2022-12-29T14:21:25;10.90;99.90
67273;DHT22;54190;49.770;9.250;2022-12-29T14:24:26;10.90;99.90
67273;DHT22;54190;49.770;9.250;2022-12-29T14:26:46;10.80;99.90
67273;DHT22;54190;49.770;9.250;2022-12-29T14:31:54;10.70;99.90
67273;DHT22;54190;49.770;9.250;2022-12-29T14:44:30;10.60;99.90
67273;DHT22;54190;49.770;9.250;2022-12-29T14:47:00;10.50;99.90
67273;DHT22;54190;49.770;9.250;2022-12-29T14:49:30;10.60;99.90
67273;DHT22;54190;49.770;9.250;2022-12-29T14:52:14;10.60;99.90
67273;DHT22;54190;49.770;9.250;2022-12-29T14:54:44;10.50;99.90
67273;DHT22;54190;49.770;9.250;2022-12-29T14:57:34;10.50;99.90
67273;DHT22;54190;49.770;9.250;2022-12-29T15:00:14;10.50;99.90
67273;DHT22;54190;49.770;9.250;2022-12-29T15:02:46;10.50;99.90
67273;DHT22;54190;49.770;9.250;2022-12-29T15:05:26;10.40;99.90
67273;DHT22;54190;49.770;9.250;2022-12-29T15:07:53;10.30;99.90
67273;DHT22;54190;49.770;9.250;2022-12-29T15:10:24;10.30;99.90
67273;DHT22;54190;49.770;9.250;2022-12-29T15:12:55;10.20;99.90
67273;DHT22;54190;49.770;9.250;2022-12-29T15:15:26;10.10;99.90
67273;DHT22;54190;49.770;9.250;2022-12-29T15:17:53;10.00;99.90
67273;DHT22;54190;49.770;9.250;2022-12-29T15:20:30;9.90;99.90
67273;DHT22;54190;49.770;9.250;2022-12-29T15:23:11;9.90;99.90
67273;DHT22;54190;49.770;9.250;2022-12-29T15:28:20;9.70;99.90
67273;DHT22;54190;49.770;9.250;2022-12-29T15:31:02;9.60;99.90
67273;DHT22;54190;49.770;9.250;2022-12-29T15:33:28;9.60;99.90
67273;DHT22;54190;49.770;9.250;2022-12-29T15:35:56;9.50;99.90
67273;DHT22;54190;49.770;9.250;2022-12-29T15:38:30;9.50;99.90
67273;DHT22;54190;49.770;9.250;2022-12-29T15:41:02;9.40;99.90
67273;DHT22;54190;49.770;9.250;2022-12-29T15:43:53;9.40;99.90
67273;DHT22;54190;49.770;9.250;2022-12-29T15:46:21;9.30;99.90
67273;DHT22;54190;49.770;9.250;2022-12-29T15:48:47;9.30;99.90
67273;DHT22;54190;49.770;9.250;2022-12-29T15:51:27;9.30;99.90
67273;DHT22;54190;49.770;9.250;2022-12-29T15:53:54;9.30;99.90
67273;DHT22;54190;49.770;9.250;2022-12-29T15:56:47;9.30;99.90
67273;DHT22;54190;49.770;9.250;2022-12-29T15:59:33;9.20;99.90
67273;DHT22;54190;49.770;9.250;2022-12-29T16:02:01;9.20;99.90
